createdAt,value
2022-11-05T00:00:02.294Z,46.60
2022-11-05T00:03:09.960Z,47.75
2022-11-05T00:06:11.903Z,52.35
2022-11-05T00:09:18.519Z,54.20
2022-11-05T00:12:25.958Z,44.78
2022-11-05T00:15:31.069Z,49.90
2022-11-05T00:18:18.880Z,45.80
2022-11-05T00:21:27.304Z,42.55
2022-11-05T00:24:34.642Z,40.38
2022-11-05T00:27:22.324Z,37.25
2022-11-05T00:30:12.339Z,33.83
2022-11-05T00:33:03.504Z,35.75
2022-11-05T00:35:51.285Z,33.08
2022-11-05T00:38:39.112Z,32.08
2022-11-05T00:41:28.398Z,36.38
2022-11-05T00:44:33.742Z,33.47
2022-11-05T00:47:39.023Z,37.75
2022-11-05T00:50:26.753Z,37.83
2022-11-05T00:53:14.657Z,43.97
2022-11-05T00:56:02.557Z,35.35
2022-11-05T00:58:51.850Z,41.72
2022-11-05T01:01:40.088Z,42.17
2022-11-05T01:04:28.088Z,46.85
2022-11-05T01:07:15.774Z,40.15
2022-11-05T01:10:03.797Z,34.33
2022-11-05T01:12:52.034Z,34.42
2022-11-05T01:15:42.288Z,33.47
2022-11-05T01:18:30.019Z,28.48
2022-11-05T01:21:17.852Z,27.98
2022-11-05T01:24:06.156Z,25.63
2022-11-05T01:26:54.218Z,26.65
2022-11-05T01:29:42.472Z,21.13
2022-11-05T01:32:31.848Z,19.60
2022-11-05T01:35:20.307Z,19.85
2022-11-05T01:38:08.039Z,20.65
2022-11-05T01:40:55.841Z,17.85
2022-11-05T01:43:49.027Z,16.90
2022-11-05T01:46:41.625Z,16.23
2022-11-05T01:49:35.354Z,15.35
2022-11-05T01:52:24.851Z,15.07
2022-11-05T01:55:14.633Z,7.65
2022-11-05T01:58:04.615Z,4.10
2022-11-05T02:00:52.325Z,2.30
2022-11-05T02:03:40.701Z,2.28
2022-11-05T02:06:31.313Z,2.88
2022-11-05T02:09:24.403Z,1.90
2022-11-05T02:12:14.254Z,2.55
2022-11-05T02:15:02.501Z,3.28
2022-11-05T02:18:01.782Z,2.47
2022-11-05T02:20:58.391Z,2.90
2022-11-05T02:24:08.533Z,3.00
2022-11-05T02:27:22.845Z,3.03
2022-11-05T02:30:35.972Z,3.53
2022-11-05T02:33:37.541Z,3.25
2022-11-05T02:36:43.076Z,3.60
2022-11-05T02:39:39.309Z,3.08
2022-11-05T02:42:36.618Z,3.88
2022-11-05T02:45:39.204Z,4.35
2022-11-05T02:48:36.805Z,4.65
2022-11-05T02:51:32.891Z,3.90
2022-11-05T02:54:26.209Z,4.15
2022-11-05T02:57:14.120Z,3.38
2022-11-05T03:00:03.535Z,3.05
2022-11-05T03:02:52.852Z,3.83
2022-11-05T03:05:45.798Z,3.05
2022-11-05T03:08:46.426Z,3.05
2022-11-05T03:11:39.055Z,2.63
2022-11-05T03:14:39.679Z,2.80
2022-11-05T03:17:37.986Z,2.65
2022-11-05T03:20:33.349Z,3.10
2022-11-05T03:23:28.882Z,3.13
2022-11-05T03:26:23.029Z,2.53
2022-11-05T03:29:16.990Z,2.45
2022-11-05T03:32:06.815Z,2.70
2022-11-05T03:35:01.276Z,2.97
2022-11-05T03:37:56.163Z,3.00
2022-11-05T03:40:46.486Z,2.30
2022-11-05T03:43:37.177Z,2.80
2022-11-05T03:46:31.574Z,2.58
2022-11-05T03:49:25.567Z,2.70
2022-11-05T03:52:17.668Z,2.60
2022-11-05T03:55:08.041Z,2.70
2022-11-05T03:57:57.332Z,2.30
2022-11-05T04:00:45.099Z,2.60
2022-11-05T04:03:36.295Z,2.03
2022-11-05T04:06:42.173Z,2.40
2022-11-05T04:09:47.143Z,2.47
2022-11-05T04:13:05.096Z,2.13
2022-11-05T04:16:10.618Z,2.72
2022-11-05T04:18:58.690Z,5.20
2022-11-05T04:22:04.098Z,2.40
2022-11-05T04:24:51.752Z,2.40
2022-11-05T04:27:40.859Z,2.92
2022-11-05T04:30:28.000Z,2.63
2022-11-05T04:33:19.666Z,2.45
2022-11-05T04:36:08.492Z,2.80
2022-11-05T04:38:56.369Z,2.60
2022-11-05T04:41:44.198Z,2.70
2022-11-05T04:44:33.441Z,3.03
2022-11-05T04:47:21.203Z,3.20
2022-11-05T04:50:10.635Z,2.83
2022-11-05T04:52:58.910Z,3.17
2022-11-05T04:55:46.862Z,2.85
2022-11-05T04:58:34.413Z,3.30
2022-11-05T05:01:25.385Z,2.83
2022-11-05T05:04:13.358Z,2.88
2022-11-05T05:07:00.908Z,3.03
2022-11-05T05:09:48.844Z,3.70
2022-11-05T05:12:37.029Z,3.10
2022-11-05T05:15:25.328Z,3.10
2022-11-05T05:18:14.672Z,5.00
2022-11-05T05:21:20.094Z,2.80
2022-11-05T05:24:10.111Z,4.25
2022-11-05T05:26:58.512Z,3.20
2022-11-05T05:29:46.246Z,3.67
2022-11-05T05:32:34.295Z,5.95
2022-11-05T05:35:23.291Z,3.85
2022-11-05T05:38:11.348Z,4.15
2022-11-05T05:41:00.000Z,3.93
2022-11-05T05:43:48.002Z,4.50
2022-11-05T05:46:35.795Z,4.10
2022-11-05T05:49:23.817Z,4.05
2022-11-05T05:52:12.985Z,3.93
2022-11-05T05:55:00.469Z,4.10
2022-11-05T05:57:48.563Z,4.57
2022-11-05T06:00:36.257Z,4.75
2022-11-05T06:03:24.303Z,4.70
2022-11-05T06:06:14.978Z,4.63
2022-11-05T06:09:05.101Z,4.45
2022-11-05T06:11:52.679Z,6.50
2022-11-05T06:14:40.170Z,5.25
2022-11-05T06:17:28.093Z,6.10
2022-11-05T06:20:15.944Z,4.70
2022-11-05T06:23:03.906Z,4.65
2022-11-05T06:25:53.378Z,4.78
2022-11-05T06:28:42.150Z,4.28
2022-11-05T06:31:29.953Z,3.88
2022-11-05T06:34:17.625Z,4.03
2022-11-05T06:37:05.202Z,5.05
2022-11-05T06:39:52.965Z,3.90
2022-11-05T06:42:41.980Z,4.35
2022-11-05T06:45:29.592Z,4.18
2022-11-05T06:48:17.615Z,4.47
2022-11-05T06:51:06.018Z,4.40
2022-11-05T06:53:53.787Z,4.47
2022-11-05T06:56:41.521Z,4.00
2022-11-05T06:59:30.931Z,4.47
2022-11-05T07:02:19.185Z,6.38
2022-11-05T07:05:11.127Z,4.40
2022-11-05T07:07:59.543Z,5.13
2022-11-05T07:10:47.391Z,4.65
2022-11-05T07:13:35.098Z,4.35
2022-11-05T07:16:26.348Z,3.92
2022-11-05T07:19:13.960Z,4.30
2022-11-05T07:22:01.715Z,4.10
2022-11-05T07:24:50.102Z,4.22
2022-11-05T07:27:41.024Z,4.45
2022-11-05T07:30:29.535Z,4.60
2022-11-05T07:33:18.991Z,3.72
2022-11-05T07:36:07.424Z,4.47
2022-11-05T07:39:00.175Z,4.18
2022-11-05T07:41:48.378Z,4.43
2022-11-05T07:44:36.317Z,4.07
2022-11-05T07:47:23.823Z,3.58
2022-11-05T07:50:13.178Z,3.47
2022-11-05T07:53:02.347Z,4.03
2022-11-05T07:55:50.470Z,3.63
2022-11-05T07:58:38.423Z,3.60
2022-11-05T08:01:26.300Z,3.60
2022-11-05T08:04:14.432Z,3.10
2022-11-05T08:07:03.458Z,3.63
2022-11-05T08:09:51.132Z,3.80
2022-11-05T08:12:38.835Z,3.90
2022-11-05T08:21:05.359Z,2.83
2022-11-05T08:23:54.608Z,3.40
2022-11-05T08:35:05.890Z,2.17
2022-11-05T08:37:58.142Z,2.20
2022-11-05T08:40:55.002Z,2.17
2022-11-05T09:40:01.599Z,2.85
2022-11-05T09:42:52.613Z,3.58
2022-11-05T09:48:32.132Z,4.30
2022-11-05T15:04:06.891Z,5.15
2022-11-05T15:07:30.732Z,6.70
2022-11-05T15:10:19.163Z,5.95
2022-11-05T15:13:08.926Z,6.40
2022-11-05T15:15:57.724Z,6.60
2022-11-05T15:18:47.083Z,6.05
2022-11-05T15:21:39.360Z,5.88
2022-11-05T15:24:29.301Z,5.90
2022-11-05T15:27:23.671Z,5.03
2022-11-05T15:30:22.269Z,5.68
2022-11-05T15:33:17.535Z,9.85
2022-11-05T15:36:13.035Z,6.40
2022-11-05T15:39:29.100Z,10.57
2022-11-05T15:42:22.182Z,6.88
2022-11-05T15:45:21.451Z,9.23
2022-11-05T15:48:17.142Z,10.30
2022-11-05T15:51:04.999Z,8.52
2022-11-05T15:57:20.612Z,8.25
2022-11-05T16:00:17.028Z,14.57
2022-11-05T16:03:08.629Z,10.30
2022-11-05T16:05:56.546Z,12.65
2022-11-05T16:08:49.629Z,11.18
2022-11-05T16:11:37.514Z,11.55
2022-11-05T16:14:36.272Z,9.82
2022-11-05T16:17:26.065Z,11.60
2022-11-05T16:20:22.886Z,9.43
2022-11-05T16:23:26.369Z,7.50
2022-11-05T16:27:02.240Z,7.63
2022-11-05T16:29:50.141Z,8.65
2022-11-05T16:32:37.881Z,8.10
2022-11-05T16:35:26.770Z,8.13
2022-11-05T16:38:14.899Z,11.53
2022-11-05T16:41:02.595Z,8.33
2022-11-05T16:43:55.335Z,11.43
2022-11-05T16:46:47.996Z,11.03
2022-11-05T16:49:36.760Z,8.47
2022-11-05T16:52:24.478Z,9.03
2022-11-05T16:55:14.139Z,8.97
2022-11-05T16:58:01.828Z,9.07
2022-11-05T17:00:50.785Z,9.53
2022-11-05T17:03:39.970Z,10.67
2022-11-05T17:06:27.451Z,8.70
2022-11-05T17:09:15.002Z,8.07
2022-11-05T17:14:50.301Z,7.47
2022-11-05T17:17:38.230Z,8.67
2022-11-05T17:20:39.920Z,7.50
2022-11-05T17:23:29.944Z,8.97
2022-11-05T17:26:19.788Z,8.37
2022-11-05T17:29:07.667Z,7.97
2022-11-05T17:31:55.330Z,7.60
2022-11-05T17:34:43.107Z,9.07
2022-11-05T17:37:33.667Z,10.13
2022-11-05T17:40:23.036Z,7.47
2022-11-05T17:43:11.489Z,7.53
2022-11-05T17:46:04.377Z,8.23
2022-11-05T17:48:53.016Z,7.80
2022-11-05T17:51:40.490Z,7.50
2022-11-05T17:54:29.715Z,7.97
2022-11-05T17:57:17.246Z,11.13
2022-11-05T18:00:06.533Z,9.33
2022-11-05T18:02:58.471Z,8.20
2022-11-05T18:05:46.278Z,9.50
2022-11-05T18:08:34.081Z,11.50
2022-11-05T18:11:23.489Z,8.30
2022-11-05T18:14:11.705Z,7.73
2022-11-05T18:17:00.373Z,8.10
2022-11-05T18:19:47.923Z,9.73
2022-11-05T18:22:35.511Z,8.67
2022-11-05T18:25:23.252Z,8.20
2022-11-05T18:28:12.423Z,9.50
2022-11-05T18:31:00.348Z,9.67
2022-11-05T18:33:47.908Z,10.70
2022-11-05T18:36:35.558Z,10.37
2022-11-05T18:39:23.150Z,11.63
2022-11-05T18:42:11.741Z,10.73
2022-11-05T18:45:00.730Z,10.37
